Time;durP1;ratioP1;P1;durP2;ratioP2;P2;SDS_P1;SDS_P2;PMS_P1;PMS_P2;Temp;Humidity;BMP_temperature;BMP_pressure;BME280_temperature;BME280_humidity;BME280_pressure;Samples;Min_cycle;Max_cycle;Signal;HPM_P1;HPM_P2
2022/04/04 00:00:47;;;;;;;6.43;4.75;;;;;;;4.81;75.21;101960.06;5104029;28;20070;-78
2022/04/04 00:03:13;;;;;;;5.00;4.50;;;;;;;4.85;75.08;101949.69;5101778;28;20035;-78
2022/04/04 00:05:39;;;;;;;5.90;4.75;;;;;;;4.85;75.13;101947.94;5128196;27;20043;-78
2022/04/04 00:08:06;;;;;;;4.05;3.70;;;;;;;4.86;75.26;101938.44;5120228;28;20357;-78
2022/04/04 00:10:31;;;;;;;5.95;4.15;;;;;;;4.85;75.29;101936.72;5120290;27;20035;-78
2022/04/04 00:12:57;;;;;;;4.38;4.03;;;;;;;4.83;75.44;101933.25;5120488;28;20212;-78
2022/04/04 00:15:23;;;;;;;5.18;4.20;;;;;;;4.83;75.62;101923.72;5104485;28;20096;-78
2022/04/04 00:17:50;;;;;;;4.45;3.47;;;;;;;4.82;75.92;101919.41;5102741;28;20123;-78
2022/04/04 00:20:16;;;;;;;5.72;3.38;;;;;;;4.82;76.09;101916.81;5119210;27;20031;-78
2022/04/04 00:22:42;;;;;;;4.57;3.00;;;;;;;4.82;75.95;101906.44;5102542;28;20596;-78
2022/04/04 00:25:08;;;;;;;4.25;3.20;;;;;;;4.78;76.25;101908.16;5102610;28;20392;-78
2022/04/04 00:27:33;;;;;;;7.78;3.10;;;;;;;4.79;76.38;101891.72;5086371;28;20461;-78
2022/04/04 00:29:59;;;;;;;3.33;3.00;;;;;;;4.78;76.47;101907.28;5103094;28;20035;-78
2022/04/04 00:32:24;;;;;;;6.97;3.33;;;;;;;4.80;76.60;101902.94;5104233;28;20036;-78
2022/04/04 00:34:49;;;;;;;5.55;3.30;;;;;;;4.83;76.49;101899.50;5101918;28;20066;-78
2022/04/04 00:37:15;;;;;;;10.93;3.35;;;;;;;4.78;77.15;101894.31;5101657;28;20027;-78
2022/04/04 00:39:41;;;;;;;8.15;3.45;;;;;;;4.79;77.12;101891.72;5120032;27;20073;-78
2022/04/04 00:42:07;;;;;;;3.20;2.83;;;;;;;4.78;77.05;101882.22;5120531;28;20034;-78
2022/04/04 00:44:33;;;;;;;15.07;3.83;;;;;;;4.77;77.91;101885.66;5087784;28;20043;-78
2022/04/04 00:46:59;;;;;;;5.97;3.05;;;;;;;4.76;77.74;101883.91;5103016;28;20050;-78
2022/04/04 00:49:24;;;;;;;7.28;3.47;;;;;;;4.76;78.20;101889.09;5122791;27;20306;-78
2022/04/04 00:51:50;;;;;;;4.80;3.80;;;;;;;4.77;78.69;101882.22;5103087;28;20273;-78
2022/04/04 00:54:16;;;;;;;6.88;3.55;;;;;;;4.76;78.61;101865.75;5106698;27;20019;-78
2022/04/04 00:56:41;;;;;;;5.00;3.13;;;;;;;4.80;78.44;101864.03;5102058;28;20050;-78
2022/04/04 00:59:10;;;;;;;8.20;3.15;;;;;;;4.79;78.82;101852.78;5110659;28;20039;-78
2022/04/04 01:01:35;;;;;;;4.97;4.00;;;;;;;4.77;78.75;101838.94;5122352;27;20106;-78
2022/04/04 01:04:01;;;;;;;5.40;3.60;;;;;;;4.80;78.28;101845.84;5102684;28;20281;-78
2022/04/04 01:06:27;;;;;;;5.95;3.78;;;;;;;4.81;78.62;101842.41;5122022;27;20035;-78
2022/04/04 01:08:53;;;;;;;4.47;3.70;;;;;;;4.83;78.11;101834.63;5121849;28;20314;-78
2022/04/04 01:11:18;;;;;;;4.65;3.72;;;;;;;4.83;77.94;101839.81;5125526;28;20019;-78
2022/04/04 01:13:46;;;;;;;7.47;3.90;;;;;;;4.83;78.46;101832.03;5126684;28;20043;-78
2022/04/04 01:16:12;;;;;;;5.18;3.80;;;;;;;4.83;78.58;101832.03;5105786;28;20291;-78
2022/04/04 01:18:37;;;;;;;6.50;4.22;;;;;;;4.85;78.45;101818.16;5066844;28;20035;-78
2022/04/04 01:21:02;;;;;;;6.70;3.80;;;;;;;4.87;78.06;101821.63;5090232;28;20112;-78
2022/04/04 01:23:34;;;;;;;5.38;3.85;;;;;;;4.84;78.44;101810.38;5102493;28;20031;-78
2022/04/04 01:26:00;;;;;;;6.10;4.78;;;;;;;4.85;78.80;101807.78;5126438;28;20075;-78
2022/04/04 01:28:25;;;;;;;9.15;5.30;;;;;;;4.88;78.43;101804.34;5109248;28;20035;-78
2022/04/04 01:30:53;;;;;;;5.22;4.28;;;;;;;4.91;78.52;101806.91;5084912;28;20036;-78
2022/04/04 01:33:19;;;;;;;10.83;5.07;;;;;;;4.92;78.27;101793.06;5130198;27;20031;-78
2022/04/04 01:35:45;;;;;;;9.85;5.72;;;;;;;4.91;78.35;101789.63;5128064;27;20358;-78
2022/04/04 01:38:10;;;;;;;5.38;4.13;;;;;;;4.90;78.07;101789.63;5123570;27;20047;-78
2022/04/04 01:40:36;;;;;;;6.32;5.22;;;;;;;4.91;78.27;101776.66;5104707;28;20028;-78
2022/04/04 01:43:02;;;;;;;6.63;5.20;;;;;;;4.93;78.42;101771.41;5108818;28;20465;-78
2022/04/04 01:48:11;;;;;;;10.73;4.85;;;;;;;4.90;78.17;101753.28;5107781;27;20129;-78
2022/04/04 01:50:37;;;;;;;12.98;5.63;;;;;;;4.91;77.91;101761.06;5126871;27;20027;-78
2022/04/04 01:55:48;;;;;;;8.40;5.80;;;;;;;4.90;78.27;101743.75;5127937;27;20038;-78
2022/04/04 01:58:13;;;;;;;9.23;5.45;;;;;;;4.90;78.45;101735.13;5108217;28;20039;-78
2022/04/04 02:00:38;;;;;;;10.32;6.10;;;;;;;4.90;78.08;101741.16;5105236;28;20042;-78
2022/04/04 02:03:05;;;;;;;8.48;5.63;;;;;;;4.93;78.20;101732.47;5088564;28;20070;-78
2022/04/04 02:05:30;;;;;;;8.70;5.18;;;;;;;4.92;78.02;101725.59;5094950;27;20028;-78
2022/04/04 02:07:55;;;;;;;19.90;6.32;;;;;;;4.93;78.02;101714.31;5108221;28;20095;-78
2022/04/04 02:10:21;;;;;;;10.73;5.82;;;;;;;4.91;78.35;101721.25;5110147;27;20035;-78
2022/04/04 02:12:46;;;;;;;8.55;5.68;;;;;;;4.92;78.32;101713.47;5105128;28;20057;-78
2022/04/04 02:15:13;;;;;;;6.57;5.32;;;;;;;4.95;78.15;101710.00;5111301;28;20254;-78
2022/04/04 02:17:38;;;;;;;8.15;5.80;;;;;;;4.94;78.39;101703.06;5109970;28;20431;-78
2022/04/04 02:20:04;;;;;;;7.88;5.43;;;;;;;4.91;78.46;101698.78;5124303;27;20111;-78
2022/04/04 02:22:30;;;;;;;6.05;4.65;;;;;;;4.92;78.41;101689.25;5108437;28;20225;-78
2022/04/04 02:24:55;;;;;;;9.23;5.63;;;;;;;4.92;78.48;101703.06;5091068;28;20060;-78
2022/04/04 02:27:20;;;;;;;8.35;5.03;;;;;;;4.91;78.43;101672.81;5104234;28;20039;-78
2022/04/04 02:29:46;;;;;;;7.30;5.55;;;;;;;4.92;78.67;101682.31;5103896;28;20066;-78
2022/04/04 02:32:12;;;;;;;8.60;5.43;;;;;;;4.95;78.65;101663.28;5110717;28;20057;-78
2022/04/04 02:34:37;;;;;;;8.43;6.20;;;;;;;4.98;78.21;101673.63;5088990;28;20031;-78
2022/04/04 02:37:03;;;;;;;7.00;6.10;;;;;;;4.97;78.54;101661.53;5108758;27;20092;-78
2022/04/04 02:39:28;;;;;;;9.80;6.13;;;;;;;4.97;78.48;101654.59;5095564;27;20406;-78
2022/04/04 02:41:55;;;;;;;7.30;6.18;;;;;;;4.98;78.32;101642.47;5111303;27;20071;-78
2022/04/04 02:44:20;;;;;;;7.97;5.90;;;;;;;4.99;78.49;101642.47;5086678;28;20031;-78
2022/04/04 02:46:46;;;;;;;8.40;5.38;;;;;;;4.99;78.55;101641.63;5091483;28;20219;-78
2022/04/04 02:49:11;;;;;;;7.93;5.32;;;;;;;5.00;78.60;101633.84;5109813;28;20036;-78
2022/04/04 02:51:37;;;;;;;8.13;5.45;;;;;;;5.00;78.72;101618.25;5103805;28;20034;-78
2022/04/04 02:54:02;;;;;;;12.57;6.35;;;;;;;5.02;78.17;101623.44;5122975;27;20043;-78
2022/04/04 02:56:30;;;;;;;8.15;4.82;;;;;;;5.07;77.96;101620.81;5103942;27;20045;-78
2022/04/04 02:59:01;;;;;;;5.82;5.22;;;;;;;5.06;78.18;101608.69;5103732;28;20090;-78
2022/04/04 03:01:27;;;;;;;12.57;6.45;;;;;;;5.04;78.29;101600.94;5086819;27;20070;-78
2022/04/04 03:03:52;;;;;;;6.88;5.15;;;;;;;5.05;78.20;101594.84;5127719;27;20362;-78
2022/04/04 03:06:18;;;;;;;11.63;5.80;;;;;;;5.05;78.68;101581.88;5095174;27;20269;-78
2022/04/04 03:08:43;;;;;;;11.27;5.60;;;;;;;5.04;78.92;101577.56;5114739;28;20091;-78
2022/04/04 03:11:08;;;;;;;9.73;5.80;;;;;;;5.06;78.40;101562.84;5126558;27;20060;-78
2022/04/04 03:13:34;;;;;;;10.40;6.25;;;;;;;5.05;78.91;101573.22;5103392;28;20204;-78
2022/04/04 03:15:59;;;;;;;11.68;6.45;;;;;;;5.06;78.77;101569.72;5123490;27;20046;-78
2022/04/04 03:18:25;;;;;;;13.90;6.45;;;;;;;5.07;78.92;101563.69;5127470;27;20047;-78
2022/04/04 03:20:52;;;;;;;10.13;6.07;;;;;;;5.09;78.66;101560.19;5103282;28;20024;-78
2022/04/04 03:23:17;;;;;;;9.52;6.28;;;;;;;5.08;78.83;101553.28;5103461;27;20092;-78
2022/04/04 03:25:43;;;;;;;10.35;6.00;;;;;;;5.06;79.20;101546.38;5103499;28;20045;-78
2022/04/04 03:28:11;;;;;;;14.02;6.43;;;;;;;5.09;78.98;101541.16;5122226;27;20031;-78
2022/04/04 03:30:37;;;;;;;8.50;5.97;;;;;;;5.08;78.85;101527.34;5103050;28;20062;-78
2022/04/04 03:33:03;;;;;;;10.55;5.63;;;;;;;5.08;78.83;101527.34;5114392;27;20066;-78
2022/04/04 03:35:31;;;;;;;13.75;7.28;;;;;;;5.09;78.77;101516.06;5126697;27;20039;-78
2022/04/04 03:37:59;;;;;;;7.82;5.80;;;;;;;5.11;78.84;101510.84;5123736;27;20569;-78
2022/04/04 03:40:25;;;;;;;7.45;6.40;;;;;;;5.17;78.54;101503.03;5111790;28;20023;-78
2022/04/04 03:42:53;;;;;;;9.90;5.88;;;;;;;5.15;78.40;101510.84;5121086;28;20027;-78
2022/04/04 03:45:19;;;;;;;11.60;6.45;;;;;;;5.14;78.37;101498.72;5103738;28;20027;-78
2022/04/04 03:47:46;;;;;;;15.80;7.63;;;;;;;5.13;78.15;101497.00;5126890;27;20214;-78
2022/04/04 03:50:13;;;;;;;13.05;5.85;;;;;;;5.15;78.20;101499.59;5104491;28;20065;-78
2022/04/04 03:52:43;;;;;;;13.80;6.22;;;;;;;5.17;78.33;101477.06;5102667;28;20055;-78
2022/04/04 03:55:11;;;;;;;12.65;6.35;;;;;;;5.13;78.45;101476.25;5102761;28;20043;-78
2022/04/04 03:57:37;;;;;;;9.75;6.38;;;;;;;5.15;78.45;101465.84;5110051;28;20031;-78
2022/04/04 04:00:05;;;;;;;9.32;5.88;;;;;;;5.17;78.46;101469.28;5088907;28;20113;-78
2022/04/04 04:02:31;;;;;;;8.25;6.20;;;;;;;5.14;78.28;101462.38;5120011;28;20027;-78
2022/04/04 04:04:56;;;;;;;9.50;6.18;;;;;;;5.17;78.22;101451.09;5102309;28;20067;-78
2022/04/04 04:07:24;;;;;;;6.28;5.05;;;;;;;5.15;78.02;101450.25;5120705;27;20089;-78
2022/04/04 04:09:50;;;;;;;8.07;5.88;;;;;;;5.18;78.10;101452.81;5126167;27;20027;-78
2022/04/04 04:12:16;;;;;;;8.30;5.70;;;;;;;5.19;77.90;101447.59;5114553;28;20358;-78
2022/04/04 04:14:41;;;;;;;10.50;5.38;;;;;;;5.21;77.95;101441.56;5077722;28;20039;-78
2022/04/04 04:17:08;;;;;;;7.80;5.05;;;;;;;5.17;77.71;101433.78;5101728;28;20053;-78
2022/04/04 04:22:19;;;;;;;9.88;5.90;;;;;;;5.17;77.98;101438.97;5108936;28;20039;-78
2022/04/04 04:24:45;;;;;;;8.60;5.63;;;;;;;5.18;77.82;101432.03;5103041;28;20019;-78
2022/04/04 04:27:10;;;;;;;7.85;5.20;;;;;;;5.15;77.92;101417.34;5101872;28;20039;-78
2022/04/04 04:29:36;;;;;;;7.05;5.60;;;;;;;5.17;77.71;101414.75;5120898;27;20303;-78
2022/04/04 04:32:01;;;;;;;8.98;5.20;;;;;;;5.15;77.61;101413.91;5125968;27;20024;-78
2022/04/04 04:34:27;;;;;;;13.23;6.25;;;;;;;5.16;77.74;101405.22;5123658;27;20063;-78
2022/04/04 04:36:52;;;;;;;8.80;5.53;;;;;;;5.19;77.75;101389.63;5107034;27;20050;-78
2022/04/04 04:39:18;;;;;;;8.63;5.35;;;;;;;5.15;77.42;101399.19;5085837;28;20035;-78
2022/04/04 04:41:45;;;;;;;8.55;4.78;;;;;;;5.19;77.45;101400.88;5126234;27;20065;-78
2022/04/04 04:44:11;;;;;;;6.65;4.75;;;;;;;5.18;77.36;101388.78;5120530;28;20334;-78
2022/04/04 04:46:37;;;;;;;16.95;5.40;;;;;;;5.16;77.23;101385.31;5104431;27;20027;-78
2022/04/04 04:49:02;;;;;;;12.65;5.38;;;;;;;5.16;77.08;101369.72;5104474;27;20031;-78
2022/04/04 04:51:28;;;;;;;7.50;5.38;;;;;;;5.19;77.37;101371.44;5104913;27;20037;-78
2022/04/04 04:53:53;;;;;;;11.30;5.25;;;;;;;5.20;77.10;101352.38;5087078;28;20051;-78
2022/04/04 04:56:19;;;;;;;8.32;5.32;;;;;;;5.18;77.07;101352.44;5103982;28;20047;-78
2022/04/04 04:58:44;;;;;;;12.02;5.03;;;;;;;5.18;77.24;101338.56;5096212;27;20032;-78
2022/04/04 05:01:10;;;;;;;12.05;6.03;;;;;;;5.19;77.12;101348.94;5101764;28;20298;-78
2022/04/04 05:03:35;;;;;;;7.25;5.32;;;;;;;5.21;76.89;101325.56;5095261;28;20320;-78
2022/04/04 05:06:00;;;;;;;7.15;5.15;;;;;;;5.25;76.99;101323.78;5108479;27;20031;-78
2022/04/04 05:08:26;;;;;;;13.77;6.68;;;;;;;5.22;76.83;101314.31;5110109;27;20054;-78
2022/04/04 05:10:52;;;;;;;10.48;6.15;;;;;;;5.21;77.03;101324.69;5130735;28;20073;-79
2022/04/04 05:13:18;;;;;;;9.68;5.35;;;;;;;5.23;77.01;101318.59;5122041;28;20181;-78
2022/04/04 05:15:44;;;;;;;15.98;5.72;;;;;;;5.23;76.74;101307.38;5123235;28;20039;-78
2022/04/04 05:18:09;;;;;;;11.82;7.30;;;;;;;5.23;76.80;101297.81;5129829;28;20041;-78
2022/04/04 05:20:35;;;;;;;7.25;5.93;;;;;;;5.22;76.89;101297.84;5117211;28;20294;-78
2022/04/04 05:23:00;;;;;;;14.73;7.35;;;;;;;5.23;76.85;101295.22;5108245;28;20139;-78
2022/04/04 05:25:26;;;;;;;9.07;6.70;;;;;;;5.25;77.02;101292.63;5126743;28;20247;-78
2022/04/04 05:27:52;;;;;;;19.77;7.40;;;;;;;5.24;76.77;101275.31;5125089;28;20046;-78
2022/04/04 05:30:18;;;;;;;16.98;6.93;;;;;;;5.26;76.92;101274.44;5121576;28;20028;-78
2022/04/04 05:32:44;;;;;;;14.73;6.35;;;;;;;5.27;77.03;101281.31;5124157;28;20059;-78
2022/04/04 05:35:12;;;;;;;13.50;7.53;;;;;;;5.26;76.95;101265.78;5121488;28;20333;-79
2022/04/04 05:37:38;;;;;;;10.13;7.05;;;;;;;5.30;76.99;101262.28;5118449;28;20320;-78
2022/04/04 05:40:04;;;;;;;11.65;7.63;;;;;;;5.28;76.94;101251.03;5110584;28;20050;-78
2022/04/04 05:42:31;;;;;;;13.13;7.53;;;;;;;5.29;77.10;101256.19;5096798;28;20048;-79
2022/04/04 05:44:57;;;;;;;11.65;7.70;;;;;;;5.31;77.08;101267.44;5104982;28;20425;-78
2022/04/04 05:47:22;;;;;;;12.73;7.22;;;;;;;5.30;77.24;101246.69;5101304;28;20062;-78
2022/04/04 05:49:51;;;;;;;18.00;7.43;;;;;;;5.33;77.82;101246.63;5133219;27;20038;-78
2022/04/04 05:52:17;;;;;;;14.30;7.53;;;;;;;5.32;78.21;101243.19;5126060;28;20077;-78
2022/04/04 05:54:57;;;;;;;9.65;7.07;;;;;;;5.35;78.34;101235.34;5102884;28;20027;-78
2022/04/04 05:57:24;;;;;;;12.60;8.48;;;;;;;5.36;78.59;101246.59;5088822;28;20245;-79
2022/04/04 05:59:51;;;;;;;13.35;7.50;;;;;;;5.36;79.85;101249.19;5123905;28;20364;-78
2022/04/04 06:02:16;;;;;;;12.88;8.00;;;;;;;5.34;79.62;101243.16;5092315;28;20046;-79
2022/04/04 06:04:42;;;;;;;15.13;9.15;;;;;;;5.35;80.53;101250.09;5130511;28;20110;-78
2022/04/04 06:07:07;;;;;;;21.10;8.70;;;;;;;5.36;80.77;101247.44;5123620;28;20087;-78
2022/04/04 06:09:33;;;;;;;13.18;9.25;;;;;;;5.37;81.40;101246.59;5081198;28;20047;-78
2022/04/04 06:11:59;;;;;;;17.00;8.82;;;;;;;5.38;81.45;101242.25;5101964;28;20027;-78
2022/04/04 06:14:24;;;;;;;12.57;7.85;;;;;;;5.37;81.91;101246.59;5120038;28;20315;-78
2022/04/04 06:16:49;;;;;;;17.00;9.07;;;;;;;5.39;82.17;101234.44;5085328;28;20186;-78
2022/04/04 06:19:16;;;;;;;15.40;8.88;;;;;;;5.38;82.54;101224.94;5114729;28;20036;-78
2022/04/04 06:21:42;;;;;;;18.63;9.48;;;;;;;5.40;83.31;101219.69;5134205;27;20063;-78
2022/04/04 06:24:07;;;;;;;11.52;8.30;;;;;;;5.41;83.71;101224.03;5110766;28;20077;-79
2022/04/04 06:26:33;;;;;;;16.10;8.68;;;;;;;5.45;83.76;101219.66;5102541;27;20076;-79
2022/04/04 06:28:58;;;;;;;13.48;8.35;;;;;;;5.44;83.75;101202.34;5100361;28;20031;-78
2022/04/04 06:31:23;;;;;;;10.93;7.63;;;;;;;5.41;83.19;101207.59;5089225;28;20058;-78
2022/04/04 06:33:49;;;;;;;13.40;6.95;;;;;;;5.43;82.79;101193.69;5110555;28;20058;-78
2022/04/04 06:36:14;;;;;;;13.60;7.72;;;;;;;5.41;82.80;101197.19;5100709;27;20062;-78
2022/04/04 06:38:40;;;;;;;11.05;5.90;;;;;;;5.41;82.33;101192.00;5121170;27;20047;-79
2022/04/04 06:41:05;;;;;;;12.63;6.07;;;;;;;5.40;82.31;101183.34;5122036;28;20027;-78
2022/04/04 06:43:31;;;;;;;6.35;5.65;;;;;;;5.36;82.28;101179.06;5130854;27;20031;-79
2022/04/04 06:45:56;;;;;;;9.70;6.30;;;;;;;5.39;82.25;101192.88;5129425;27;20046;-78
2022/04/04 06:48:22;;;;;;;12.73;6.07;;;;;;;5.39;82.97;101179.88;5143332;27;20368;-79
2022/04/04 06:50:48;;;;;;;14.35;7.15;;;;;;;5.39;82.82;101179.03;5108921;28;20028;-78
2022/04/04 06:53:15;;;;;;;9.63;6.70;;;;;;;5.38;83.31;101165.19;5119295;27;20245;-79
2022/04/04 06:55:42;;;;;;;9.50;6.05;;;;;;;5.34;82.87;101171.28;5108258;27;20056;-79
2022/04/04 06:58:07;;;;;;;8.60;5.38;;;;;;;5.35;83.37;101156.59;5108983;27;20047;-79
2022/04/04 07:00:35;;;;;;;9.27;5.70;;;;;;;5.33;83.30;101179.09;5121432;27;20220;-79
2022/04/04 07:03:01;;;;;;;9.07;5.43;;;;;;;5.37;82.77;101166.06;5123846;27;20019;-79
2022/04/04 07:05:27;;;;;;;10.48;6.28;;;;;;;5.36;83.42;101153.94;5109284;27;20030;-78
2022/04/04 07:07:53;;;;;;;12.05;5.15;;;;;;;5.35;82.80;101159.19;5083266;27;20024;-79
2022/04/04 07:10:19;;;;;;;11.02;4.90;;;;;;;5.33;82.41;101151.41;5135230;27;20035;-79
2022/04/04 07:12:44;;;;;;;7.20;4.15;;;;;;;5.33;82.81;101145.34;5126408;27;20031;-79
2022/04/04 07:15:10;;;;;;;6.43;4.10;;;;;;;5.30;83.09;101138.47;5097687;28;20399;-79
2022/04/04 07:17:38;;;;;;;9.15;5.00;;;;;;;5.29;83.26;101146.25;5121864;27;20091;-79
2022/04/04 07:20:04;;;;;;;6.20;3.92;;;;;;;5.28;83.67;101149.75;5095818;27;20067;-79
2022/04/04 07:22:37;;;;;;;11.13;4.50;;;;;;;5.23;84.23;101164.53;5098113;28;20422;-79
2022/04/04 07:25:09;;;;;;;13.25;4.05;;;;;;;5.17;84.79;101168.94;5110572;27;20381;-79
2022/04/04 07:27:43;;;;;;;13.20;4.78;;;;;;;5.16;85.35;101138.63;5120301;28;20099;-79
2022/04/04 07:30:10;;;;;;;12.45;4.57;;;;;;;5.11;86.08;101129.19;5102263;28;20027;-79
2022/04/04 07:32:37;;;;;;;11.38;4.78;;;;;;;5.08;86.74;101160.41;5122024;28;20042;-79
2022/04/04 07:35:04;;;;;;;9.93;4.40;;;;;;;5.03;87.31;101144.88;5121056;27;20032;-79
2022/04/04 07:37:30;;;;;;;11.63;4.80;;;;;;;4.96;87.64;101120.72;5126048;28;20023;-79
2022/04/04 07:39:55;;;;;;;9.10;5.18;;;;;;;4.96;87.58;101170.03;5095140;28;20107;-79
2022/04/04 07:42:21;;;;;;;8.10;4.65;;;;;;;4.95;87.24;101112.97;5082730;28;20367;-79
2022/04/04 07:44:46;;;;;;;13.18;4.60;;;;;;;4.91;87.46;101113.88;5122551;27;20099;-79
2022/04/04 07:47:11;;;;;;;6.05;4.38;;;;;;;4.87;87.62;101110.47;5112250;28;20054;-78
2022/04/04 07:49:37;;;;;;;9.20;4.20;;;;;;;4.90;87.46;101081.03;5111543;27;20118;-79
2022/04/04 07:52:03;;;;;;;9.32;4.50;;;;;;;4.90;87.70;101089.66;5109238;28;20063;-79
2022/04/04 07:54:28;;;;;;;6.75;4.35;;;;;;;4.89;88.28;101087.94;5114944;28;20035;-79
2022/04/04 07:56:56;;;;;;;7.88;4.30;;;;;;;4.91;87.92;101077.53;5122780;28;20052;-79
2022/04/04 07:59:22;;;;;;;5.88;3.83;;;;;;;4.93;88.04;101063.69;5113693;28;20036;-79
2022/04/04 08:01:47;;;;;;;9.15;4.57;;;;;;;4.94;88.19;101072.31;5109542;28;20028;-79
2022/04/04 08:04:12;;;;;;;7.38;4.20;;;;;;;4.93;88.63;101076.66;5110276;28;20035;-79
2022/04/04 08:06:38;;;;;;;11.15;4.75;;;;;;;4.93;88.74;101061.09;5131993;27;20047;-79
2022/04/04 08:09:03;;;;;;;6.32;4.40;;;;;;;4.95;88.90;101066.28;5096428;27;20039;-79
2022/04/04 08:11:29;;;;;;;8.90;4.03;;;;;;;4.99;88.39;101062.75;5092596;27;20031;-78
2022/04/04 08:13:54;;;;;;;8.32;4.72;;;;;;;4.99;88.38;101049.75;5126889;27;20372;-78
2022/04/04 08:16:22;;;;;;;7.40;4.20;;;;;;;5.03;88.57;101054.03;5101286;27;20016;-78
2022/04/04 08:18:47;;;;;;;6.95;4.18;;;;;;;5.01;88.54;101037.63;5091537;28;20031;-80
2022/04/04 08:21:15;;;;;;;12.65;4.75;;;;;;;5.00;88.57;101034.16;5113569;28;20035;-79
2022/04/04 08:23:41;;;;;;;15.70;5.10;;;;;;;5.04;88.94;101041.91;5143627;27;20030;-79
2022/04/04 08:26:06;;;;;;;17.58;4.93;;;;;;;5.03;89.43;101056.63;5109214;28;20032;-80
2022/04/04 08:28:32;;;;;;;16.98;4.75;;;;;;;5.01;89.57;101042.81;5124612;27;20083;-79
2022/04/04 08:30:57;;;;;;;8.73;4.68;;;;;;;5.04;89.52;101036.69;5102909;28;20032;-79
2022/04/04 08:33:24;;;;;;;9.20;4.20;;;;;;;5.05;88.95;101039.28;5101719;28;20023;-79
2022/04/04 08:35:53;;;;;;;13.10;4.40;;;;;;;5.06;89.03;101030.63;5128960;28;20106;-79
2022/04/04 08:38:20;;;;;;;9.45;5.53;;;;;;;5.12;88.99;101046.09;5131362;28;20026;-79
2022/04/04 08:40:48;;;;;;;11.45;5.65;;;;;;;5.10;89.22;101029.69;5109750;28;20020;-79
2022/04/04 08:43:16;;;;;;;9.93;4.28;;;;;;;5.13;89.41;101015.78;5113274;28;20051;-79
2022/04/04 08:45:42;;;;;;;10.18;5.07;;;;;;;5.14;89.86;101018.38;5127724;27;20054;-79
2022/04/04 08:48:09;;;;;;;7.45;4.15;;;;;;;5.14;89.79;101007.97;5123598;28;20027;-79
2022/04/04 08:50:36;;;;;;;12.45;4.72;;;;;;;5.17;90.05;101012.28;5120686;28;20015;-79
2022/04/04 08:53:02;;;;;;;13.18;4.70;;;;;;;5.20;90.17;101020.00;5107309;28;20076;-79
2022/04/04 08:55:28;;;;;;;16.40;5.18;;;;;;;5.22;90.48;101015.69;5106276;28;20019;-80
2022/04/04 08:57:55;;;;;;;7.47;4.25;;;;;;;5.21;90.48;100998.38;5132633;28;20341;-80
2022/04/04 09:00:22;;;;;;;14.95;4.78;;;;;;;5.26;90.51;101003.50;5134857;27;20038;-79
2022/04/04 09:03:04;;;;;;;8.75;4.32;;;;;;;5.26;90.84;100995.72;5141279;27;20374;-79
2022/04/04 09:05:34;;;;;;;12.57;4.32;;;;;;;5.28;91.34;100996.53;5133255;28;20487;-79
2022/04/04 09:08:07;;;;;;;16.33;5.18;;;;;;;5.28;91.40;100997.41;5111400;28;20010;-79
2022/04/04 09:10:35;;;;;;;16.65;4.18;;;;;;;5.31;91.65;100994.75;5093146;27;20123;-79
2022/04/04 09:13:09;;;;;;;6.22;3.90;;;;;;;5.32;91.90;100986.06;5120042;28;20085;-80
2022/04/04 09:15:55;;;;;;;8.32;4.03;;;;;;;5.33;92.28;100990.38;5134703;28;20023;-80
2022/04/04 09:18:39;;;;;;;11.48;4.40;;;;;;;5.36;92.15;100985.13;5122400;28;20011;-79
2022/04/04 09:21:14;;;;;;;15.63;3.75;;;;;;;5.39;92.16;100986.81;5123265;28;20031;-79
2022/04/04 09:23:42;;;;;;;11.02;3.95;;;;;;;5.38;92.26;100978.19;5132178;28;20023;-80
2022/04/04 09:26:38;;;;;;;15.93;4.27;;;;;;;5.41;92.44;100984.22;5109402;28;20019;-80
2022/04/04 09:29:14;;;;;;;7.05;3.42;;;;;;;5.42;92.83;100937.44;5131133;28;20037;-80
2022/04/04 09:31:58;;;;;;;5.28;3.17;;;;;;;5.41;92.62;100950.44;5131524;28;20047;-80
2022/04/04 09:34:23;;;;;;;13.88;3.75;;;;;;;5.41;92.84;100960.84;5122187;28;20026;-79
2022/04/04 09:36:49;;;;;;;11.50;3.63;;;;;;;5.48;92.73;100967.63;5090204;28;20039;-79
2022/04/04 09:39:17;;;;;;;9.77;3.13;;;;;;;5.49;92.67;100977.13;5120833;28;20028;-80
2022/04/04 09:41:43;;;;;;;6.80;3.03;;;;;;;5.44;92.86;100951.25;5104881;28;20046;-79
2022/04/04 09:44:11;;;;;;;5.72;2.95;;;;;;;5.46;92.80;100961.63;5122316;28;20054;-79
2022/04/04 09:46:42;;;;;;;4.95;3.30;;;;;;;5.54;92.50;100949.34;5124982;28;20046;-79
2022/04/04 09:49:14;;;;;;;5.47;2.97;;;;;;;5.53;92.83;100937.22;5124676;28;20102;-79
2022/04/04 09:51:41;;;;;;;9.50;3.25;;;;;;;5.54;92.80;100949.34;5112280;28;20024;-80
2022/04/04 09:54:10;;;;;;;12.02;3.30;;;;;;;5.55;92.92;100949.31;5119053;27;20321;-79
2022/04/04 09:56:36;;;;;;;5.68;2.55;;;;;;;5.59;92.72;100952.72;5112374;28;20249;-80
2022/04/04 09:59:02;;;;;;;9.45;3.10;;;;;;;5.64;92.82;100955.22;5114300;27;20342;-80
2022/04/04 10:01:31;;;;;;;13.20;3.67;;;;;;;5.63;93.08;100943.13;5127493;28;20028;-79
2022/04/04 10:03:56;;;;;;;8.40;2.83;;;;;;;5.68;93.08;100949.09;5102371;27;20026;-80
2022/04/04 10:06:26;;;;;;;6.55;2.28;;;;;;;5.65;93.32;100925.75;5108691;28;20039;-79
2022/04/04 10:08:55;;;;;;;8.57;2.65;;;;;;;5.68;93.39;100923.09;5144024;27;20062;-80
2022/04/04 10:11:22;;;;;;;11.90;2.65;;;;;;;5.70;93.84;100921.34;5130050;28;20040;-79
2022/04/04 10:13:48;;;;;;;6.43;2.50;;;;;;;5.70;93.94;100910.94;5114962;28;20043;-79
2022/04/04 10:16:16;;;;;;;8.18;2.67;;;;;;;5.72;93.60;100915.22;5137080;27;20412;-79
2022/04/04 10:18:46;;;;;;;7.60;2.53;;;;;;;5.76;93.92;100892.63;5112455;28;20057;-79
2022/04/04 10:21:12;;;;;;;6.93;2.25;;;;;;;5.75;93.61;100902.16;5118096;28;20036;-80
2022/04/04 10:23:39;;;;;;;6.72;2.88;;;;;;;5.81;93.73;100890.78;5099011;28;20031;-80
2022/04/04 10:26:07;;;;;;;10.32;3.17;;;;;;;5.82;94.39;100912.44;5133757;28;20027;-79
2022/04/04 10:28:34;;;;;;;7.38;2.80;;;;;;;5.82;94.38;100909.81;5137716;27;20083;-80
2022/04/04 10:31:21;;;;;;;7.28;2.38;;;;;;;5.84;94.20;100887.25;5132868;27;20097;-80
2022/04/04 10:33:49;;;;;;;9.52;2.75;;;;;;;5.86;94.40;100890.72;5120044;27;20090;-80
2022/04/04 10:36:20;;;;;;;7.15;2.72;;;;;;;5.86;94.46;100894.16;5133482;28;20042;-79
2022/04/04 10:38:46;;;;;;;8.27;2.63;;;;;;;5.94;94.49;100889.63;5117467;28;20031;-79
2022/04/04 10:41:14;;;;;;;6.80;2.60;;;;;;;5.95;94.58;100880.13;5114338;28;20036;-79
2022/04/04 10:43:45;;;;;;;6.25;2.40;;;;;;;5.99;94.71;100894.78;5127868;27;20080;-79
2022/04/04 10:46:15;;;;;;;10.68;2.70;;;;;;;6.00;94.84;100893.03;5127209;28;20028;-80
2022/04/04 10:48:46;;;;;;;9.30;2.08;;;;;;;6.01;94.83;100880.00;5130386;27;20073;-80
2022/04/04 10:51:17;;;;;;;5.05;2.10;;;;;;;6.05;95.28;100884.25;5136123;27;20038;-80
2022/04/04 10:53:47;;;;;;;8.98;2.60;;;;;;;6.09;95.16;100862.53;5134579;27;20039;-80
2022/04/04 10:56:18;;;;;;;8.05;2.83;;;;;;;6.11;94.95;100865.06;5129020;27;20039;-79
2022/04/04 10:58:44;;;;;;;9.40;2.90;;;;;;;6.14;95.51;100852.00;5133587;28;20035;-80
2022/04/04 11:01:20;;;;;;;5.57;2.55;;;;;;;6.20;95.75;100869.22;5132762;27;20037;-80
2022/04/04 11:03:52;;;;;;;3.88;2.22;;;;;;;6.23;95.55;100853.53;5125958;28;20035;-80
2022/04/04 11:09:22;;;;;;;9.18;2.83;;;;;;;6.22;96.00;100857.91;5127344;28;20065;-79
2022/04/04 11:11:52;;;;;;;3.78;1.60;;;;;;;6.25;96.03;100856.97;5113219;28;20027;-80
2022/04/04 11:14:27;;;;;;;4.65;1.85;;;;;;;6.30;96.02;100849.91;5108160;28;20015;-80
2022/04/04 11:17:52;;;;;;;6.43;1.83;;;;;;;6.31;96.10;100831.69;5130536;27;20106;-79
2022/04/04 11:20:10;;;;;;;5.47;1.98;;;;;;;6.30;96.24;100824.75;5112274;28;20032;-80
2022/04/04 11:22:42;;;;;;;7.07;1.95;;;;;;;6.30;96.38;100818.72;5128797;27;20116;-79
2022/04/04 11:25:17;;;;;;;3.83;1.70;;;;;;;6.32;96.30;100822.13;5108585;28;20011;-80
2022/04/04 11:27:48;;;;;;;3.88;1.52;;;;;;;6.36;96.66;100833.31;5118480;28;20015;-80
2022/04/04 11:30:17;;;;;;;3.35;1.80;;;;;;;6.40;96.64;100817.56;5132191;28;20290;-80
2022/04/04 11:32:44;;;;;;;2.90;1.33;;;;;;;6.44;96.58;100831.38;5100409;28;20020;-80
2022/04/04 11:35:14;;;;;;;3.83;1.27;;;;;;;6.44;96.67;100813.16;5129978;27;20028;-80
2022/04/04 11:37:48;;;;;;;3.97;1.40;;;;;;;6.47;96.70;100816.53;5114476;28;20115;-80
2022/04/04 11:40:19;;;;;;;4.70;1.40;;;;;;;6.45;97.12;100813.13;5122621;28;20126;-79